createdAt,value
2023-02-25T00:00:41.081Z,3.55
2023-02-25T00:01:57.747Z,3.54
2023-02-25T00:03:06.079Z,3.52
2023-02-25T00:04:09.418Z,3.47
2023-02-25T00:05:13.629Z,3.52
2023-02-25T00:06:16.850Z,3.45
2023-02-25T00:07:19.973Z,3.43
2023-02-25T00:08:23.091Z,3.38
2023-02-25T00:09:26.335Z,3.43
2023-02-25T00:10:29.575Z,3.43
2023-02-25T00:11:33.301Z,3.41
2023-02-25T00:12:36.417Z,3.40
2023-02-25T00:13:41.946Z,3.41
2023-02-25T00:14:45.063Z,3.36
2023-02-25T00:15:48.425Z,3.43
2023-02-25T00:16:51.820Z,3.43
2023-02-25T00:17:55.029Z,3.42
2023-02-25T00:18:59.591Z,3.41
2023-02-25T00:20:02.955Z,3.41
2023-02-25T00:21:09.918Z,3.42
2023-02-25T00:22:13.169Z,3.42
2023-02-25T00:23:16.156Z,3.42
2023-02-25T00:24:19.164Z,3.43
2023-02-25T00:25:22.168Z,3.42
2023-02-25T00:26:25.162Z,3.45
2023-02-25T00:27:28.768Z,3.50
2023-02-25T00:28:32.846Z,3.50
2023-02-25T00:29:35.492Z,3.49
2023-02-25T00:30:39.766Z,3.53
2023-02-25T00:31:42.913Z,3.57
2023-02-25T00:32:45.886Z,3.52
2023-02-25T00:33:49.429Z,3.56
2023-02-25T00:34:52.179Z,3.53
2023-02-25T00:35:54.985Z,3.59
2023-02-25T00:36:57.758Z,3.59
2023-02-25T00:38:14.849Z,3.59
2023-02-25T00:39:17.843Z,3.49
2023-02-25T00:40:20.561Z,3.53
2023-02-25T00:41:28.612Z,3.56
2023-02-25T00:42:31.232Z,3.52
2023-02-25T00:43:34.236Z,3.53
2023-02-25T00:44:37.193Z,3.49
2023-02-25T00:45:43.195Z,3.57
2023-02-25T00:46:45.862Z,3.58
2023-02-25T00:47:48.481Z,3.58
2023-02-25T00:48:51.843Z,3.60
2023-02-25T00:49:55.119Z,3.59
2023-02-25T00:50:57.642Z,3.62
2023-02-25T00:52:00.451Z,3.65
2023-02-25T00:53:03.255Z,3.65
2023-02-25T00:54:05.918Z,3.60
2023-02-25T00:55:09.012Z,3.61
2023-02-25T00:56:15.809Z,3.67
2023-02-25T00:57:18.860Z,3.60
2023-02-25T00:58:21.524Z,3.55
2023-02-25T00:59:24.193Z,3.61
2023-02-25T01:00:27.166Z,3.63
2023-02-25T01:01:33.388Z,3.67
2023-02-25T01:02:36.566Z,3.66
2023-02-25T01:03:40.731Z,3.69
2023-02-25T01:04:43.484Z,3.69
2023-02-25T01:05:49.627Z,3.70
2023-02-25T01:06:54.197Z,3.69
2023-02-25T01:07:56.690Z,3.74
2023-02-25T01:09:00.289Z,3.77
2023-02-25T01:10:03.179Z,3.77
2023-02-25T01:11:21.233Z,3.80
2023-02-25T01:12:24.894Z,3.75
2023-02-25T01:13:28.969Z,3.73
2023-02-25T01:14:31.736Z,3.70
2023-02-25T01:15:34.251Z,3.70
2023-02-25T01:16:37.153Z,3.71
2023-02-25T01:17:40.135Z,3.65
2023-02-25T01:18:43.857Z,3.72
2023-02-25T01:19:46.384Z,3.67
2023-02-25T01:20:50.215Z,3.74
2023-02-25T01:21:57.538Z,3.76
2023-02-25T01:23:00.064Z,3.74
2023-02-25T01:24:06.449Z,3.73
2023-02-25T01:25:14.127Z,3.75
2023-02-25T01:26:16.862Z,3.72
2023-02-25T01:27:19.761Z,3.71
2023-02-25T01:28:22.273Z,3.66
2023-02-25T01:29:29.960Z,3.71
2023-02-25T01:30:33.066Z,3.59
2023-02-25T01:31:36.068Z,3.63
2023-02-25T01:32:39.088Z,3.63
2023-02-25T01:33:41.950Z,3.68
2023-02-25T01:34:44.470Z,3.71
2023-02-25T01:35:46.999Z,3.76
2023-02-25T01:36:50.357Z,3.77
2023-02-25T01:37:53.120Z,3.82
2023-02-25T01:38:56.510Z,3.87
2023-02-25T01:39:59.495Z,3.92
2023-02-25T01:41:03.328Z,3.96
2023-02-25T01:42:16.291Z,3.99
2023-02-25T01:43:19.188Z,3.96
2023-02-25T01:44:29.509Z,4.00
2023-02-25T01:45:32.853Z,3.92
2023-02-25T01:46:37.178Z,3.97
2023-02-25T01:47:40.912Z,3.98
2023-02-25T01:48:43.903Z,3.89
2023-02-25T01:49:47.383Z,3.92
2023-02-25T01:50:55.930Z,3.94
2023-02-25T01:52:07.305Z,3.99
2023-02-25T01:53:10.545Z,3.95
2023-02-25T01:54:15.839Z,3.88
2023-02-25T01:55:19.431Z,3.90
2023-02-25T01:56:27.113Z,3.94
2023-02-25T01:57:30.235Z,3.92
2023-02-25T01:58:35.157Z,4.00
2023-02-25T01:59:39.600Z,3.94
2023-02-25T02:00:43.251Z,3.98
2023-02-25T02:01:46.689Z,4.00
2023-02-25T02:02:50.131Z,4.01
2023-02-25T02:03:54.012Z,4.04
2023-02-25T02:04:57.252Z,4.13
2023-02-25T02:06:03.250Z,4.14
2023-02-25T02:07:08.051Z,4.12
2023-02-25T02:08:11.682Z,4.09
2023-02-25T02:09:19.937Z,4.14
2023-02-25T02:10:23.058Z,4.10
2023-02-25T02:11:30.017Z,4.16
2023-02-25T02:12:43.218Z,4.22
2023-02-25T02:13:52.957Z,4.19
2023-02-25T02:15:00.041Z,4.18
2023-02-25T02:16:25.968Z,4.21
2023-02-25T02:17:56.915Z,4.24
2023-02-25T02:19:22.712Z,4.23
2023-02-25T02:21:12.512Z,4.30
2023-02-25T02:22:33.761Z,4.27
2023-02-25T02:23:43.001Z,4.27
2023-02-25T02:25:32.320Z,4.37
2023-02-25T02:26:53.564Z,4.31
2023-02-25T02:28:24.110Z,4.30
2023-02-25T02:29:54.651Z,4.39
2023-02-25T02:31:21.759Z,4.43
2023-02-25T02:32:53.336Z,4.47
2023-02-25T02:34:23.459Z,4.48
2023-02-25T02:36:01.021Z,4.43
2023-02-25T02:37:29.698Z,4.48
2023-02-25T02:38:32.267Z,4.41
2023-02-25T02:39:37.672Z,4.46
2023-02-25T02:40:44.753Z,4.50
2023-02-25T02:42:01.554Z,4.52
2023-02-25T02:43:11.415Z,4.56
2023-02-25T02:44:22.876Z,4.50
2023-02-25T02:45:55.373Z,4.55
2023-02-25T02:47:03.115Z,4.56
2023-02-25T02:48:30.477Z,4.56
2023-02-25T02:49:50.545Z,4.53
2023-02-25T02:51:00.832Z,4.53
2023-02-25T02:52:16.194Z,4.51
2023-02-25T02:53:29.632Z,4.53
2023-02-25T02:54:36.474Z,4.46
2023-02-25T02:55:45.971Z,4.38
2023-02-25T02:56:51.719Z,4.40
2023-02-25T02:58:00.602Z,4.37
2023-02-25T02:59:28.326Z,4.41
2023-02-25T03:00:36.616Z,4.35
2023-02-25T03:01:51.607Z,4.34
2023-02-25T03:03:02.875Z,4.32
2023-02-25T03:04:11.035Z,4.25
2023-02-25T03:05:18.630Z,4.21
2023-02-25T03:06:27.240Z,4.21
2023-02-25T03:07:33.001Z,4.16
2023-02-25T03:08:48.481Z,4.13
2023-02-25T03:09:58.320Z,4.11
2023-02-25T03:11:01.687Z,4.12
2023-02-25T03:12:04.570Z,4.01
2023-02-25T03:13:09.495Z,4.00
2023-02-25T03:14:13.458Z,4.02
2023-02-25T03:15:16.471Z,4.00
2023-02-25T03:16:28.208Z,4.01
2023-02-25T03:17:36.485Z,4.02
2023-02-25T03:18:49.579Z,4.01
2023-02-25T03:20:10.477Z,3.98
2023-02-25T03:21:21.374Z,4.08
2023-02-25T03:22:29.417Z,4.03
2023-02-25T03:23:34.332Z,4.01
2023-02-25T03:24:45.853Z,4.04
2023-02-25T03:26:01.342Z,4.08
2023-02-25T03:27:30.024Z,4.13
2023-02-25T03:28:37.846Z,4.05
2023-02-25T03:29:40.465Z,4.06
2023-02-25T03:30:56.943Z,4.12
2023-02-25T03:32:09.696Z,4.14
2023-02-25T03:33:51.271Z,4.15
2023-02-25T03:34:58.234Z,4.06
2023-02-25T03:36:07.955Z,4.08
2023-02-25T03:37:18.998Z,4.08
2023-02-25T03:38:25.602Z,4.08
2023-02-25T03:39:40.367Z,4.08
2023-02-25T03:40:43.734Z,4.08
2023-02-25T03:41:51.527Z,4.15
2023-02-25T03:43:08.361Z,4.16
2023-02-25T03:44:21.054Z,4.14
2023-02-25T03:45:25.373Z,4.10
2023-02-25T03:46:29.386Z,4.14
2023-02-25T03:47:37.384Z,4.15
2023-02-25T03:48:41.940Z,4.12
2023-02-25T03:50:05.222Z,4.13
2023-02-25T03:51:09.780Z,4.10
2023-02-25T03:52:21.070Z,4.16
2023-02-25T03:53:27.187Z,4.10
2023-02-25T03:54:36.906Z,4.14
2023-02-25T03:55:40.274Z,4.14
2023-02-25T03:56:52.277Z,4.18
2023-02-25T03:57:56.594Z,4.12
2023-02-25T03:58:59.724Z,4.08
2023-02-25T04:00:13.875Z,4.11
2023-02-25T04:01:25.515Z,4.16
2023-02-25T04:02:33.742Z,4.17
2023-02-25T04:03:37.169Z,4.11
2023-02-25T04:04:40.700Z,4.18
2023-02-25T04:05:43.761Z,4.18
2023-02-25T04:06:47.845Z,4.20
2023-02-25T04:07:51.084Z,4.16
2023-02-25T04:08:55.284Z,4.17
2023-02-25T04:09:58.767Z,4.24
2023-02-25T04:11:01.899Z,4.25
2023-02-25T04:12:06.450Z,4.19
2023-02-25T04:13:10.532Z,4.23
2023-02-25T04:14:13.900Z,4.25
2023-02-25T04:15:17.734Z,4.23
2023-02-25T04:16:21.120Z,4.28
2023-02-25T04:17:24.578Z,4.26
2023-02-25T04:18:28.306Z,4.21
2023-02-25T04:19:31.423Z,4.21
2023-02-25T04:20:35.153Z,4.18
2023-02-25T04:21:40.068Z,4.16
2023-02-25T04:22:43.320Z,4.19
2023-02-25T04:23:46.547Z,4.14
2023-02-25T04:24:50.151Z,4.16
2023-02-25T04:25:53.632Z,4.16
2023-02-25T04:26:58.916Z,4.15
2023-02-25T04:28:01.917Z,4.14
2023-02-25T04:29:04.799Z,4.17
2023-02-25T04:30:08.404Z,4.14
2023-02-25T04:31:11.225Z,4.16
2023-02-25T04:32:14.278Z,4.12
2023-02-25T04:33:17.056Z,4.14
2023-02-25T04:34:19.862Z,4.08
2023-02-25T04:35:22.575Z,4.08
2023-02-25T04:36:27.066Z,4.11
2023-02-25T04:37:30.743Z,4.06
2023-02-25T04:38:33.374Z,4.05
2023-02-25T04:39:36.975Z,4.03
2023-02-25T04:40:39.547Z,3.96
2023-02-25T04:41:42.908Z,3.99
2023-02-25T04:42:46.221Z,3.94
2023-02-25T04:43:48.912Z,3.96
2023-02-25T04:44:51.633Z,3.95
2023-02-25T04:45:55.107Z,4.03
2023-02-25T04:46:57.580Z,3.91
2023-02-25T04:48:00.039Z,3.92
2023-02-25T04:49:03.791Z,3.92
2023-02-25T04:50:08.114Z,3.91
2023-02-25T04:51:10.844Z,3.92
2023-02-25T04:52:16.280Z,4.00
2023-02-25T04:53:18.914Z,3.94
2023-02-25T04:54:21.795Z,3.91
2023-02-25T04:55:24.317Z,3.92
2023-02-25T04:56:27.081Z,3.90
2023-02-25T04:57:29.836Z,3.90
2023-02-25T04:58:34.162Z,3.90
2023-02-25T04:59:36.680Z,3.83
2023-02-25T05:00:40.524Z,3.88
2023-02-25T05:01:43.720Z,3.90
2023-02-25T05:02:48.204Z,3.90
2023-02-25T05:03:57.187Z,3.95
2023-02-25T05:04:59.891Z,3.91
2023-02-25T05:06:03.453Z,3.93
2023-02-25T05:07:07.292Z,3.95
2023-02-25T05:08:09.925Z,3.91
2023-02-25T05:09:12.692Z,3.94
2023-02-25T05:10:15.715Z,3.95
2023-02-25T05:11:19.290Z,3.94
2023-02-25T05:12:21.928Z,3.87
2023-02-25T05:13:24.706Z,3.90
2023-02-25T05:14:27.341Z,3.89
2023-02-25T05:15:29.973Z,3.85
2023-02-25T05:16:32.508Z,3.84
2023-02-25T05:17:36.331Z,3.85
2023-02-25T05:18:43.061Z,3.90
2023-02-25T05:19:45.699Z,3.88
2023-02-25T05:20:48.350Z,3.79
2023-02-25T05:21:51.940Z,3.82
2023-02-25T05:22:54.584Z,3.77
2023-02-25T05:23:57.339Z,3.72
2023-02-25T05:24:59.979Z,3.72
2023-02-25T05:26:02.495Z,3.71
2023-02-25T05:27:05.266Z,3.71
2023-02-25T05:28:09.341Z,3.78
2023-02-25T05:29:12.465Z,3.77
2023-02-25T05:30:15.472Z,3.75
2023-02-25T05:31:18.509Z,3.84
2023-02-25T05:32:21.055Z,3.78
2023-02-25T05:33:24.025Z,3.85
2023-02-25T05:34:26.872Z,3.87
2023-02-25T05:35:29.390Z,3.91
2023-02-25T05:36:31.924Z,3.93
2023-02-25T05:37:34.794Z,3.86
2023-02-25T05:38:37.318Z,3.88
2023-02-25T05:39:39.956Z,3.86
2023-02-25T05:40:42.718Z,3.91
2023-02-25T05:41:45.363Z,3.85
2023-02-25T05:42:49.708Z,3.79
2023-02-25T05:43:52.324Z,3.79
2023-02-25T05:44:54.850Z,3.72
2023-02-25T05:45:59.526Z,3.71
2023-02-25T05:47:02.234Z,3.69
2023-02-25T05:48:05.172Z,3.66
2023-02-25T05:49:09.252Z,3.61
2023-02-25T05:50:13.342Z,3.67
2023-02-25T05:51:19.840Z,3.67
2023-02-25T05:52:22.697Z,3.55
2023-02-25T05:53:25.949Z,3.55
2023-02-25T05:54:28.944Z,3.58
2023-02-25T05:55:32.066Z,3.56
2023-02-25T05:56:35.189Z,3.53
2023-02-25T05:57:38.429Z,3.42
2023-02-25T05:58:41.909Z,3.40
2023-02-25T05:59:45.146Z,3.38
2023-02-25T06:00:48.390Z,3.38
2023-02-25T06:01:51.931Z,3.38
2023-02-25T06:02:55.144Z,3.32
2023-02-25T06:03:59.054Z,3.34
2023-02-25T06:05:02.936Z,3.28
2023-02-25T06:06:07.116Z,3.31
2023-02-25T06:07:10.238Z,3.22
2023-02-25T06:08:13.361Z,3.19
2023-02-25T06:09:19.483Z,3.26
2023-02-25T06:10:22.602Z,3.26
2023-02-25T06:11:29.207Z,3.22
2023-02-25T06:12:34.369Z,3.14
2023-02-25T06:13:37.487Z,3.14
2023-02-25T06:14:40.613Z,3.13
2023-02-25T06:15:43.970Z,3.04
2023-02-25T06:16:47.254Z,3.03
2023-02-25T06:17:50.574Z,3.01
2023-02-25T06:18:53.699Z,2.97
2023-02-25T06:19:57.059Z,3.00
2023-02-25T06:21:05.823Z,3.05
2023-02-25T06:22:09.128Z,3.09
2023-02-25T06:23:12.664Z,3.09
2023-02-25T06:24:16.882Z,3.14
2023-02-25T06:25:20.226Z,3.19
2023-02-25T06:26:23.738Z,3.20
2023-02-25T06:27:27.193Z,3.22
2023-02-25T06:28:30.432Z,3.12
2023-02-25T06:29:33.319Z,3.07
2023-02-25T06:30:36.693Z,3.04
2023-02-25T06:31:39.991Z,3.03
2023-02-25T06:32:43.112Z,3.01
2023-02-25T06:33:47.137Z,3.03
2023-02-25T06:34:49.766Z,2.96
2023-02-25T06:35:55.763Z,2.94
2023-02-25T06:36:58.648Z,2.90
2023-02-25T06:38:01.411Z,2.95
2023-02-25T06:39:04.699Z,2.87
2023-02-25T06:40:08.061Z,2.84
2023-02-25T06:41:15.602Z,2.90
2023-02-25T06:42:18.336Z,2.83
2023-02-25T06:43:20.908Z,2.91
2023-02-25T06:44:23.859Z,2.94
2023-02-25T06:45:26.667Z,2.90
2023-02-25T06:46:29.397Z,2.94
2023-02-25T06:47:32.146Z,2.92
2023-02-25T06:48:34.949Z,3.04
2023-02-25T06:49:37.486Z,3.01
2023-02-25T06:50:40.831Z,3.09
2023-02-25T06:51:43.312Z,3.11
2023-02-25T06:52:45.996Z,3.10
2023-02-25T06:53:48.764Z,3.13
2023-02-25T06:54:51.518Z,3.18
2023-02-25T06:55:54.037Z,3.15
2023-02-25T06:56:56.675Z,3.22
2023-02-25T06:57:59.288Z,3.24
2023-02-25T06:59:01.835Z,3.30
2023-02-25T07:00:05.692Z,3.37
2023-02-25T07:01:14.498Z,3.38
2023-02-25T07:02:17.199Z,3.34
2023-02-25T07:03:19.810Z,3.37
2023-02-25T07:04:23.577Z,3.32
2023-02-25T07:05:26.204Z,3.32
2023-02-25T07:06:28.962Z,3.28
2023-02-25T07:07:32.319Z,3.28
2023-02-25T07:08:35.096Z,3.29
2023-02-25T07:09:37.844Z,3.25
2023-02-25T07:10:42.162Z,3.30
2023-02-25T07:11:44.922Z,3.32
2023-02-25T07:12:47.574Z,3.37
2023-02-25T07:13:51.523Z,3.32
2023-02-25T07:14:54.163Z,3.34
2023-02-25T07:15:56.854Z,3.27
2023-02-25T07:16:59.329Z,3.29
2023-02-25T07:18:02.569Z,3.26
2023-02-25T07:19:05.086Z,3.26
2023-02-25T07:20:09.049Z,3.26
2023-02-25T07:21:15.991Z,3.29
2023-02-25T07:22:19.779Z,3.36
2023-02-25T07:23:24.177Z,3.32
2023-02-25T07:24:27.047Z,3.36
2023-02-25T07:25:29.730Z,3.32
2023-02-25T07:26:32.213Z,3.38
2023-02-25T07:27:34.881Z,3.40
2023-02-25T07:28:37.618Z,3.47
2023-02-25T07:29:40.492Z,3.47
2023-02-25T07:30:43.127Z,3.53
2023-02-25T07:31:45.881Z,3.69
2023-02-25T07:32:48.540Z,3.79
2023-02-25T07:33:51.539Z,3.89
2023-02-25T07:34:54.183Z,3.86
2023-02-25T07:35:57.662Z,3.92
2023-02-25T07:37:00.452Z,3.98
2023-02-25T07:38:04.625Z,3.97
2023-02-25T07:39:09.798Z,4.11
2023-02-25T07:40:13.088Z,4.09
2023-02-25T07:41:19.176Z,4.14
2023-02-25T07:42:21.806Z,4.18
2023-02-25T07:43:24.485Z,4.10
2023-02-25T07:44:26.968Z,4.27
2023-02-25T07:45:29.747Z,4.26
2023-02-25T07:46:33.042Z,4.39
2023-02-25T07:47:35.965Z,4.32
2023-02-25T07:48:38.845Z,4.28
2023-02-25T07:49:41.611Z,4.34
2023-02-25T07:50:46.172Z,4.43
2023-02-25T07:51:48.834Z,4.36
2023-02-25T07:52:51.469Z,4.26
2023-02-25T07:54:00.156Z,4.28
2023-02-25T07:55:06.217Z,4.34
2023-02-25T07:56:10.060Z,4.34
2023-02-25T07:57:13.064Z,4.30
2023-02-25T07:58:16.062Z,4.34
2023-02-25T07:59:20.311Z,4.32
2023-02-25T08:00:23.507Z,4.23
2023-02-25T08:01:34.347Z,4.28
2023-02-25T08:02:37.576Z,4.29
2023-02-25T08:03:40.553Z,4.16
2023-02-25T08:04:43.697Z,4.14
2023-02-25T08:05:51.127Z,4.15
2023-02-25T08:06:54.598Z,4.02
2023-02-25T08:07:57.839Z,3.97
2023-02-25T08:09:00.965Z,3.94
2023-02-25T08:10:04.948Z,4.00
2023-02-25T08:11:10.085Z,3.99
2023-02-25T08:12:13.206Z,3.96
2023-02-25T08:13:16.452Z,4.04
2023-02-25T08:14:19.569Z,4.02
2023-02-25T08:15:22.700Z,4.03
2023-02-25T08:16:25.818Z,4.00
2023-02-25T08:17:32.899Z,4.01
2023-02-25T08:18:36.858Z,4.07
2023-02-25T08:19:40.580Z,4.11
2023-02-25T08:20:48.141Z,4.16
2023-02-25T08:21:51.267Z,4.08
2023-02-25T08:22:57.506Z,4.15
2023-02-25T08:24:00.750Z,4.15
2023-02-25T08:25:04.852Z,4.24
2023-02-25T08:26:10.364Z,4.23
2023-02-25T08:27:13.834Z,4.24
2023-02-25T08:28:17.078Z,4.39
2023-02-25T08:29:20.435Z,4.46
2023-02-25T08:30:23.439Z,4.55
2023-02-25T08:31:27.324Z,4.69
2023-02-25T08:32:31.530Z,4.78
2023-02-25T08:33:34.845Z,5.09
2023-02-25T08:34:37.975Z,5.43
2023-02-25T08:35:40.723Z,5.61
2023-02-25T08:36:43.728Z,5.94
2023-02-25T08:37:46.608Z,6.70
2023-02-25T08:38:50.335Z,7.62
2023-02-25T08:39:56.701Z,8.39
2023-02-25T08:41:00.722Z,8.54
2023-02-25T08:42:04.188Z,8.94
2023-02-25T08:43:07.432Z,9.41
2023-02-25T08:44:10.149Z,10.02
2023-02-25T08:45:13.260Z,10.46
2023-02-25T08:46:15.888Z,10.94
2023-02-25T08:47:19.039Z,10.87
2023-02-25T08:48:21.591Z,11.51
2023-02-25T08:49:24.186Z,11.77
2023-02-25T08:50:27.549Z,11.80
2023-02-25T08:51:34.962Z,13.06
2023-02-25T08:52:37.676Z,13.38
2023-02-25T08:53:41.471Z,14.01
2023-02-25T08:54:44.153Z,14.35
2023-02-25T08:55:47.523Z,14.87
2023-02-25T08:56:55.577Z,14.90
2023-02-25T08:57:58.198Z,14.96
2023-02-25T08:59:01.202Z,14.93
2023-02-25T09:00:06.728Z,14.82
2023-02-25T09:01:14.579Z,14.33
2023-02-25T09:02:17.275Z,14.07
2023-02-25T09:03:19.779Z,12.95
2023-02-25T09:04:23.702Z,11.55
2023-02-25T09:05:26.517Z,10.42
2023-02-25T09:06:29.293Z,9.66
2023-02-25T09:07:32.641Z,9.18
2023-02-25T09:08:35.519Z,8.48
2023-02-25T09:09:38.046Z,8.85
2023-02-25T09:10:49.955Z,9.07
2023-02-25T09:11:54.130Z,8.77
2023-02-25T09:12:56.762Z,8.48
2023-02-25T09:14:00.489Z,8.08
2023-02-25T09:15:03.373Z,7.61
2023-02-25T09:16:06.369Z,7.35
2023-02-25T09:17:09.845Z,7.07
2023-02-25T09:18:12.486Z,6.73
2023-02-25T09:19:17.529Z,6.73
2023-02-25T09:20:20.174Z,6.62
2023-02-25T09:21:23.265Z,6.50
2023-02-25T09:22:25.929Z,6.38
2023-02-25T09:23:28.570Z,6.08
2023-02-25T09:24:32.891Z,5.91
2023-02-25T09:25:35.415Z,5.66
2023-02-25T09:26:38.292Z,5.47
2023-02-25T09:27:40.814Z,5.38
2023-02-25T09:28:43.466Z,5.21
2023-02-25T09:29:45.979Z,5.13
2023-02-25T09:30:48.544Z,5.64
2023-02-25T09:31:51.175Z,6.72
2023-02-25T09:32:53.946Z,7.52
2023-02-25T09:33:56.419Z,8.56
2023-02-25T09:35:07.355Z,9.28
2023-02-25T09:36:15.883Z,10.56
2023-02-25T09:37:19.818Z,11.57
2023-02-25T09:38:22.343Z,11.68
2023-02-25T09:39:24.991Z,11.80
2023-02-25T09:40:27.879Z,11.79
2023-02-25T09:41:48.271Z,12.31
2023-02-25T09:43:07.713Z,12.88
2023-02-25T09:44:17.913Z,13.53
2023-02-25T09:45:25.122Z,13.41
2023-02-25T09:46:31.045Z,14.19
2023-02-25T09:47:45.655Z,13.98
2023-02-25T09:48:56.086Z,14.18
2023-02-25T09:50:23.922Z,13.69
2023-02-25T09:51:31.609Z,14.14
2023-02-25T09:52:47.222Z,14.23
2023-02-25T09:54:16.133Z,14.93
2023-02-25T09:55:24.413Z,14.80
2023-02-25T09:56:28.263Z,14.26
2023-02-25T09:57:37.498Z,14.15
2023-02-25T09:58:46.259Z,14.14
2023-02-25T09:59:54.674Z,14.30
2023-02-25T10:01:13.023Z,14.20
2023-02-25T10:02:29.576Z,14.31
2023-02-25T10:03:38.473Z,14.20
2023-02-25T10:04:55.398Z,14.03
2023-02-25T10:06:13.756Z,15.00
2023-02-25T10:07:24.560Z,15.09
2023-02-25T10:08:33.199Z,15.88
2023-02-25T10:09:51.804Z,15.13
2023-02-25T10:11:04.769Z,14.96
2023-02-25T10:12:43.413Z,14.37
2023-02-25T10:13:46.534Z,13.11
2023-02-25T10:15:21.091Z,12.44
2023-02-25T10:16:46.096Z,13.73
2023-02-25T10:18:24.464Z,13.16
2023-02-25T10:19:36.818Z,13.05
2023-02-25T10:20:59.381Z,12.17
2023-02-25T10:22:20.622Z,12.05
2023-02-25T10:23:58.785Z,11.43
2023-02-25T10:25:13.909Z,10.31
2023-02-25T10:26:31.311Z,9.63
2023-02-25T10:27:42.351Z,9.46
2023-02-25T10:28:50.992Z,9.14
2023-02-25T10:30:04.917Z,9.50
2023-02-25T10:31:19.069Z,9.94
2023-02-25T10:32:34.632Z,11.12
2023-02-25T10:33:41.287Z,11.63
2023-02-25T10:34:44.768Z,12.59
2023-02-25T10:35:52.082Z,12.72
2023-02-25T10:36:58.084Z,12.98
2023-02-25T10:38:00.987Z,12.99
2023-02-25T10:39:04.935Z,13.26
2023-02-25T10:40:12.611Z,13.87
2023-02-25T10:41:15.252Z,14.15
2023-02-25T10:42:18.014Z,14.86
2023-02-25T10:43:23.588Z,15.56
2023-02-25T10:44:26.435Z,15.14
2023-02-25T10:45:34.218Z,14.84
2023-02-25T10:46:56.311Z,15.52
2023-02-25T10:48:12.986Z,16.13
2023-02-25T10:49:17.264Z,16.64
2023-02-25T10:50:42.759Z,17.11
2023-02-25T10:52:17.851Z,17.18
2023-02-25T10:53:22.032Z,16.68
2023-02-25T10:54:26.356Z,16.34
2023-02-25T10:55:52.063Z,15.21
2023-02-25T10:56:55.879Z,15.04
2023-02-25T10:57:58.763Z,15.22
2023-02-25T10:59:31.611Z,14.77
2023-02-25T11:00:36.557Z,14.31
2023-02-25T11:01:42.393Z,14.50
2023-02-25T11:02:45.262Z,14.24
2023-02-25T11:04:00.805Z,14.43
2023-02-25T11:05:03.441Z,14.48
2023-02-25T11:06:27.309Z,14.92
2023-02-25T11:07:57.204Z,14.96
2023-02-25T11:09:02.260Z,15.11
2023-02-25T11:10:16.263Z,14.85
2023-02-25T11:11:40.166Z,14.79
2023-02-25T11:12:46.416Z,15.71
2023-02-25T11:14:15.206Z,15.13
2023-02-25T11:15:43.787Z,15.51
2023-02-25T11:16:47.734Z,15.53
2023-02-25T11:17:50.874Z,15.55
2023-02-25T11:18:57.831Z,16.05
2023-02-25T11:20:02.018Z,16.60
2023-02-25T11:21:11.851Z,17.01
2023-02-25T11:22:22.447Z,16.14
2023-02-25T11:23:33.116Z,15.87
2023-02-25T11:24:38.275Z,15.50
2023-02-25T11:25:45.575Z,15.19
2023-02-25T11:26:51.714Z,15.52
2023-02-25T11:27:58.866Z,15.03
2023-02-25T11:29:15.337Z,15.64
2023-02-25T11:30:25.781Z,15.60
2023-02-25T11:31:36.948Z,16.19
2023-02-25T11:32:58.158Z,16.86
2023-02-25T11:34:05.464Z,16.79
2023-02-25T11:35:10.324Z,15.92
2023-02-25T11:36:13.187Z,15.86
2023-02-25T11:37:43.116Z,16.44
2023-02-25T11:38:48.124Z,15.45
2023-02-25T11:39:56.263Z,14.88
2023-02-25T11:40:58.791Z,15.05
2023-02-25T11:42:23.522Z,15.87
2023-02-25T11:43:36.000Z,16.24
2023-02-25T11:44:45.850Z,16.28
2023-02-25T11:45:53.889Z,16.10
2023-02-25T11:47:25.803Z,16.41
2023-02-25T11:48:51.134Z,15.96
2023-02-25T11:50:20.296Z,15.80
2023-02-25T11:51:25.929Z,15.66
2023-02-25T11:52:52.380Z,15.74
2023-02-25T11:54:14.170Z,15.51
2023-02-25T11:55:26.074Z,15.46
2023-02-25T11:56:32.538Z,15.53
2023-02-25T11:57:58.819Z,16.00
2023-02-25T11:59:23.177Z,15.76
2023-02-25T12:00:36.390Z,15.32
2023-02-25T12:01:45.979Z,15.54
2023-02-25T12:03:15.981Z,14.97
2023-02-25T12:04:53.194Z,14.61
2023-02-25T12:06:06.506Z,13.80
2023-02-25T12:07:36.988Z,14.29
2023-02-25T12:08:57.280Z,14.44
2023-02-25T12:10:24.992Z,13.71
2023-02-25T12:12:09.881Z,14.88
2023-02-25T12:13:31.485Z,15.09
2023-02-25T12:14:56.318Z,15.25
2023-02-25T12:16:26.806Z,14.90
2023-02-25T12:17:54.422Z,14.68
2023-02-25T12:19:34.850Z,14.78
2023-02-25T12:21:10.251Z,15.51
2023-02-25T12:22:44.213Z,15.23
2023-02-25T12:24:04.617Z,15.07
2023-02-25T12:25:31.501Z,14.56
2023-02-25T12:26:53.340Z,15.70
2023-02-25T12:28:11.132Z,16.72
2023-02-25T12:29:32.585Z,16.55
2023-02-25T12:31:03.265Z,16.94
2023-02-25T12:32:34.103Z,16.44
2023-02-25T12:34:05.111Z,14.28
2023-02-25T12:35:42.697Z,13.94
2023-02-25T12:37:10.395Z,13.66
2023-02-25T12:38:34.149Z,14.18
2023-02-25T12:39:48.320Z,14.38
2023-02-25T12:41:09.685Z,15.20
2023-02-25T12:42:26.007Z,14.73
2023-02-25T12:43:53.488Z,15.60
2023-02-25T12:45:33.724Z,15.22
2023-02-25T12:47:12.466Z,15.83
2023-02-25T12:49:05.547Z,15.91
2023-02-25T12:50:16.417Z,15.47
2023-02-25T12:51:25.047Z,15.76
2023-02-25T12:52:35.721Z,16.44
2023-02-25T12:53:47.547Z,15.62
2023-02-25T12:55:21.868Z,15.08
2023-02-25T12:57:02.310Z,13.84
2023-02-25T12:58:20.217Z,12.78
2023-02-25T12:59:25.711Z,12.85
2023-02-25T13:00:51.200Z,14.27
2023-02-25T13:02:12.437Z,15.22
2023-02-25T13:03:49.710Z,15.34
2023-02-25T13:05:29.930Z,14.46
2023-02-25T13:07:01.718Z,13.46
2023-02-25T13:08:49.612Z,12.73
2023-02-25T13:10:33.780Z,12.96
2023-02-25T13:12:10.592Z,13.59
2023-02-25T13:13:46.582Z,14.23
2023-02-25T13:15:20.618Z,14.79
2023-02-25T13:16:28.270Z,15.18
2023-02-25T13:17:53.454Z,14.92
2023-02-25T13:19:30.287Z,14.20
2023-02-25T13:20:57.177Z,14.31
2023-02-25T13:22:35.685Z,14.53
2023-02-25T13:23:59.572Z,13.33
2023-02-25T13:25:23.578Z,12.96
2023-02-25T13:26:47.807Z,12.55
2023-02-25T13:28:06.654Z,12.38
2023-02-25T13:30:00.289Z,12.25
2023-02-25T13:31:19.524Z,12.70
2023-02-25T13:32:36.141Z,12.51
2023-02-25T13:34:00.423Z,11.66
2023-02-25T13:35:37.993Z,11.54
2023-02-25T13:36:52.856Z,11.33
2023-02-25T13:38:32.700Z,11.35
2023-02-25T13:39:54.437Z,11.28
2023-02-25T13:41:26.226Z,11.41
2023-02-25T13:42:50.465Z,11.52
2023-02-25T13:44:11.588Z,11.63
2023-02-25T13:45:47.152Z,11.25
2023-02-25T13:47:32.007Z,10.71
2023-02-25T13:49:04.157Z,10.31
2023-02-25T13:50:43.283Z,10.37
2023-02-25T13:52:05.122Z,9.90
2023-02-25T13:53:33.921Z,9.29
2023-02-25T13:55:06.445Z,8.95
2023-02-25T13:56:56.248Z,8.88
2023-02-25T13:57:58.894Z,8.52
2023-02-25T13:59:26.515Z,8.81
2023-02-25T14:00:46.176Z,8.55
2023-02-25T14:02:21.237Z,8.56
2023-02-25T14:03:49.068Z,8.13
2023-02-25T14:05:29.501Z,8.19
2023-02-25T14:07:09.226Z,8.28
2023-02-25T14:09:02.270Z,8.54
2023-02-25T14:10:32.520Z,8.18
2023-02-25T14:12:23.646Z,8.53
2023-02-25T14:13:39.959Z,8.38
2023-02-25T14:15:18.004Z,8.33
2023-02-25T14:16:39.602Z,8.06
2023-02-25T14:18:07.689Z,8.70
2023-02-25T14:19:10.931Z,8.39
2023-02-25T14:20:42.252Z,8.14
2023-02-25T14:21:58.453Z,8.63
2023-02-25T14:23:33.499Z,8.43
2023-02-25T14:24:47.058Z,8.55
2023-02-25T14:26:18.856Z,8.63
2023-02-25T14:27:40.100Z,8.51
2023-02-25T14:29:08.061Z,8.49
2023-02-25T14:30:41.851Z,8.48
2023-02-25T14:32:01.447Z,8.56
2023-02-25T14:33:22.963Z,8.33
2023-02-25T14:34:29.430Z,8.21
2023-02-25T14:35:32.552Z,8.19
2023-02-25T14:36:57.158Z,8.30
2023-02-25T14:38:10.721Z,8.03
2023-02-25T14:39:13.597Z,8.16
2023-02-25T14:40:38.560Z,8.15
2023-02-25T14:42:02.800Z,8.20
2023-02-25T14:43:30.162Z,8.47
2023-02-25T14:44:38.686Z,8.49
2023-02-25T14:45:52.091Z,8.80
2023-02-25T14:47:05.208Z,8.78
2023-02-25T14:48:48.819Z,9.21
2023-02-25T14:49:54.174Z,8.97
2023-02-25T14:51:30.709Z,9.18
2023-02-25T14:53:05.029Z,9.19
2023-02-25T14:54:25.544Z,9.13
2023-02-25T14:55:40.022Z,8.94
2023-02-25T14:57:01.548Z,8.58
2023-02-25T14:58:22.068Z,8.55
2023-02-25T14:59:30.666Z,8.65
2023-02-25T15:00:38.873Z,8.77
2023-02-25T15:02:09.948Z,9.06
2023-02-25T15:03:15.352Z,9.35
2023-02-25T15:04:39.111Z,8.94
2023-02-25T15:05:52.643Z,8.65
2023-02-25T15:06:57.952Z,8.34
2023-02-25T15:08:37.436Z,8.81
2023-02-25T15:10:17.363Z,8.83
2023-02-25T15:11:26.258Z,8.81
2023-02-25T15:12:58.675Z,9.11
2023-02-25T15:14:22.054Z,9.26
2023-02-25T15:15:34.348Z,9.31
2023-02-25T15:17:14.760Z,9.56
2023-02-25T15:18:41.398Z,9.37
2023-02-25T15:20:00.720Z,9.64
2023-02-25T15:21:33.972Z,9.54
2023-02-25T15:22:37.690Z,8.82
2023-02-25T15:23:51.122Z,8.77
2023-02-25T15:25:14.405Z,8.14
2023-02-25T15:26:24.963Z,7.76
2023-02-25T15:27:34.093Z,8.13
2023-02-25T15:28:39.021Z,8.33